createdAt,value
2018-02-21T00:02:05.000Z,50.33
2018-02-21T00:04:33.456Z,49.03
2018-02-21T00:07:01.092Z,48.47
2018-02-21T00:09:29.528Z,48.53
2018-02-21T00:11:59.628Z,46.97
2018-02-21T00:14:27.528Z,47.10
2018-02-21T00:16:55.179Z,48.90
2018-02-21T00:19:22.833Z,47.57
2018-02-21T00:21:50.428Z,46.00
2018-02-21T00:24:18.465Z,43.97
2018-02-21T00:26:46.238Z,46.87
2018-02-21T00:29:14.048Z,48.00
2018-02-21T00:31:43.797Z,45.40
2018-02-21T00:34:11.477Z,46.30
2018-02-21T00:36:41.573Z,46.77
2018-02-21T00:39:09.616Z,44.43
2018-02-21T00:41:37.288Z,45.70
2018-02-21T00:44:04.993Z,44.07
2018-02-21T00:46:33.403Z,44.43
2018-02-21T00:49:01.970Z,43.67
2018-02-21T00:51:30.404Z,43.30
2018-02-21T00:53:58.065Z,44.00
2018-02-21T00:56:27.154Z,42.43
2018-02-21T00:58:54.848Z,42.17
2018-02-21T01:01:25.177Z,43.53
2018-02-21T01:03:55.494Z,43.17
2018-02-21T01:06:24.307Z,41.97
2018-02-21T01:08:53.016Z,41.80
2018-02-21T01:11:20.664Z,43.70
2018-02-21T01:13:48.329Z,44.20
2018-02-21T01:16:22.653Z,44.10
2018-02-21T01:18:52.245Z,42.43
2018-02-21T01:21:20.673Z,42.17
2018-02-21T01:23:49.254Z,41.77
2018-02-21T01:26:17.040Z,44.40
2018-02-21T01:28:46.646Z,42.63
2018-02-21T01:31:14.459Z,42.27
2018-02-21T01:33:43.729Z,42.73
2018-02-21T01:36:11.504Z,42.43
2018-02-21T01:38:39.172Z,41.43
2018-02-21T01:41:06.842Z,44.13
2018-02-21T01:43:35.768Z,42.77
2018-02-21T01:46:03.540Z,42.77
2018-02-21T01:48:31.227Z,42.80
2018-02-21T01:51:00.615Z,41.23
2018-02-21T01:53:28.335Z,38.90
2018-02-21T01:55:58.276Z,42.53
2018-02-21T01:58:26.361Z,42.13
2018-02-21T02:00:54.914Z,43.13
2018-02-21T02:03:22.651Z,41.57
2018-02-21T02:05:52.389Z,42.53
2018-02-21T02:08:20.078Z,41.53
2018-02-21T02:10:50.397Z,41.17
2018-02-21T02:13:18.358Z,40.00
2018-02-21T02:15:48.735Z,49.00
2018-02-21T02:18:16.389Z,56.40
2018-02-21T02:20:45.118Z,51.67
2018-02-21T02:23:14.298Z,51.90
2018-02-21T02:25:42.103Z,42.80
2018-02-21T02:28:11.436Z,38.63
2018-02-21T02:30:41.983Z,37.93
2018-02-21T02:33:09.667Z,38.80
2018-02-21T02:35:37.338Z,40.93
2018-02-21T02:38:04.926Z,41.13
2018-02-21T02:40:32.603Z,40.87
2018-02-21T02:43:02.313Z,40.83
2018-02-21T02:45:32.037Z,41.60
2018-02-21T02:48:00.998Z,40.67
2018-02-21T02:50:28.795Z,40.50
2018-02-21T02:52:58.639Z,41.00
2018-02-21T02:55:26.915Z,40.80
2018-02-21T02:57:54.577Z,38.47
2018-02-21T03:00:23.553Z,42.47
2018-02-21T03:02:51.214Z,41.83
2018-02-21T03:05:19.366Z,39.50
2018-02-21T03:07:48.106Z,39.97
2018-02-21T03:10:17.711Z,40.83
2018-02-21T03:12:46.455Z,42.60
2018-02-21T03:15:20.080Z,42.23
2018-02-21T03:17:49.705Z,43.00
2018-02-21T03:20:17.597Z,41.90
2018-02-21T03:22:45.482Z,41.90
2018-02-21T03:25:15.207Z,41.47
2018-02-21T03:27:42.908Z,40.57
2018-02-21T03:30:10.598Z,40.67
2018-02-21T03:32:38.219Z,40.07
2018-02-21T03:35:06.766Z,40.40
2018-02-21T03:37:34.472Z,40.13
2018-02-21T03:40:02.095Z,40.27
2018-02-21T03:42:31.471Z,41.70
2018-02-21T03:44:59.623Z,39.60
2018-02-21T03:47:27.307Z,39.67
2018-02-21T03:49:55.196Z,39.50
2018-02-21T03:52:24.382Z,42.37
2018-02-21T03:54:53.273Z,41.67
2018-02-21T03:57:20.926Z,40.77
2018-02-21T03:59:48.616Z,40.57
2018-02-21T04:02:16.195Z,40.57
2018-02-21T04:04:46.489Z,39.13
2018-02-21T04:07:15.524Z,40.60
2018-02-21T04:09:44.563Z,39.17
2018-02-21T04:12:13.236Z,38.13
2018-02-21T04:14:40.919Z,38.73
2018-02-21T04:17:08.559Z,37.20
2018-02-21T04:19:37.211Z,39.23
2018-02-21T04:22:05.113Z,37.53
2018-02-21T04:24:33.589Z,36.30
2018-02-21T04:27:02.708Z,39.07
2018-02-21T04:29:30.877Z,37.60
2018-02-21T04:31:59.813Z,38.03
2018-02-21T04:34:27.680Z,38.37
2018-02-21T04:36:58.108Z,37.63
2018-02-21T04:39:26.641Z,40.13
2018-02-21T04:41:55.333Z,39.67
2018-02-21T04:44:23.088Z,39.17
2018-02-21T04:46:51.869Z,37.47
2018-02-21T04:49:20.033Z,38.03
2018-02-21T04:51:48.275Z,35.87
2018-02-21T04:57:36.248Z,37.63
2018-02-21T05:00:19.963Z,37.17
2018-02-21T05:02:47.631Z,37.43
2018-02-21T05:05:15.282Z,37.90
2018-02-21T05:07:42.886Z,38.57
2018-02-21T05:10:11.524Z,48.33
2018-02-21T05:12:40.484Z,39.80
2018-02-21T05:15:08.210Z,39.50
2018-02-21T05:17:38.035Z,39.10
2018-02-21T05:20:06.306Z,39.13
2018-02-21T05:22:34.006Z,37.30
2018-02-21T05:25:06.400Z,38.53
2018-02-21T05:27:35.608Z,38.10
2018-02-21T05:30:05.169Z,36.80
2018-02-21T05:32:33.829Z,36.67
2018-02-21T05:35:03.037Z,36.93
2018-02-21T05:37:30.786Z,36.63
2018-02-21T05:39:59.469Z,34.83
2018-02-21T05:42:27.475Z,34.90
2018-02-21T05:44:57.876Z,33.57
2018-02-21T05:47:26.745Z,35.20
2018-02-21T05:49:56.242Z,34.13
2018-02-21T05:52:24.089Z,36.20
2018-02-21T05:54:51.723Z,33.27
2018-02-21T05:57:21.911Z,33.30
2018-02-21T05:59:50.381Z,33.03
2018-02-21T06:02:20.004Z,34.00
2018-02-21T06:04:50.555Z,34.40
2018-02-21T06:07:19.533Z,31.70
2018-02-21T06:09:47.181Z,33.13
2018-02-21T06:12:16.007Z,32.13
2018-02-21T06:14:48.622Z,31.10
2018-02-21T06:17:18.009Z,32.43
2018-02-21T06:19:46.808Z,31.27
2018-02-21T06:22:16.007Z,33.47
2018-02-21T06:24:43.662Z,32.80
2018-02-21T06:27:13.303Z,32.67
2018-02-21T06:29:42.522Z,34.37
2018-02-21T06:32:10.270Z,33.93
2018-02-21T06:34:37.840Z,34.20
2018-02-21T06:37:06.220Z,34.00
2018-02-21T06:39:33.901Z,33.53
2018-02-21T06:42:01.576Z,32.90
2018-02-21T06:44:29.318Z,32.87
2018-02-21T06:46:57.030Z,35.77
2018-02-21T06:49:25.218Z,35.23
2018-02-21T06:51:55.050Z,33.83
2018-02-21T06:54:25.837Z,36.00
2018-02-21T06:56:55.084Z,34.47
2018-02-21T06:59:25.024Z,35.77
2018-02-21T07:01:53.803Z,35.43
2018-02-21T07:04:22.055Z,34.80
2018-02-21T07:06:52.163Z,35.87
2018-02-21T07:09:19.839Z,34.77
2018-02-21T07:11:48.958Z,36.23
2018-02-21T07:14:17.029Z,34.97
2018-02-21T07:16:45.885Z,35.77
2018-02-21T07:19:15.558Z,35.77
2018-02-21T07:21:43.522Z,36.37
2018-02-21T07:24:13.854Z,37.20
2018-02-21T07:26:42.860Z,36.70
2018-02-21T07:29:12.361Z,37.40
2018-02-21T07:31:41.518Z,35.93
2018-02-21T07:34:09.970Z,36.10
2018-02-21T07:36:39.618Z,35.43
2018-02-21T07:39:08.571Z,37.57
2018-02-21T07:41:37.269Z,35.97
2018-02-21T07:44:04.951Z,35.90
2018-02-21T07:46:34.590Z,35.67
2018-02-21T07:49:03.851Z,36.00
2018-02-21T07:51:33.887Z,34.20
2018-02-21T07:54:01.634Z,34.03
2018-02-21T07:56:30.470Z,34.23
2018-02-21T07:59:00.959Z,33.93
2018-02-21T08:01:29.348Z,33.23
2018-02-21T08:03:57.813Z,33.20
2018-02-21T08:06:27.254Z,33.67
2018-02-21T08:09:00.445Z,33.20
2018-02-21T08:11:28.934Z,33.03
2018-02-21T08:13:56.837Z,33.40
2018-02-21T08:16:25.979Z,31.97
2018-02-21T08:18:54.809Z,31.40
2018-02-21T08:21:22.904Z,31.93
2018-02-21T08:23:52.121Z,32.07
2018-02-21T08:26:23.648Z,30.93
2018-02-21T08:28:52.826Z,31.83
2018-02-21T08:31:26.184Z,32.53
2018-02-21T08:33:56.016Z,33.00
2018-02-21T08:36:25.126Z,33.43
2018-02-21T08:38:54.780Z,36.67
2018-02-21T08:41:22.928Z,31.00
2018-02-21T08:43:51.398Z,31.83
2018-02-21T08:46:20.080Z,31.13
2018-02-21T08:48:48.016Z,30.87
2018-02-21T08:51:15.662Z,30.60
2018-02-21T08:53:43.298Z,30.00
2018-02-21T08:56:12.938Z,28.97
2018-02-21T08:58:42.800Z,29.57
2018-02-21T09:01:10.580Z,27.20
2018-02-21T09:03:39.000Z,28.17
2018-02-21T09:06:06.708Z,30.57
2018-02-21T09:08:34.385Z,31.40
2018-02-21T09:11:02.014Z,29.93
2018-02-21T09:13:30.364Z,30.73
2018-02-21T09:15:58.130Z,30.13
2018-02-21T09:18:26.761Z,26.60
2018-02-21T09:20:54.935Z,28.57
2018-02-21T09:23:24.666Z,28.80
2018-02-21T09:25:52.437Z,27.17
2018-02-21T09:28:20.882Z,30.57
2018-02-21T09:30:50.775Z,30.00
2018-02-21T09:33:20.467Z,27.17
2018-02-21T09:35:48.090Z,29.57
2018-02-21T09:38:15.736Z,30.00
2018-02-21T09:40:43.604Z,30.13
2018-02-21T09:43:11.391Z,30.20
2018-02-21T09:45:39.634Z,27.10
2018-02-21T09:48:07.576Z,30.10
2018-02-21T09:50:35.406Z,33.17
2018-02-21T09:53:03.058Z,52.50
2018-02-21T09:55:30.713Z,31.70
2018-02-21T09:57:58.405Z,28.10
2018-02-21T10:00:26.852Z,33.43
2018-02-21T10:02:54.504Z,31.60
2018-02-21T10:05:22.348Z,29.73
2018-02-21T10:07:49.990Z,28.10
2018-02-21T10:10:17.666Z,31.30
2018-02-21T10:12:50.758Z,31.97
2018-02-21T10:15:23.126Z,32.60
2018-02-21T10:17:51.746Z,33.37
2018-02-21T10:20:20.460Z,30.90
2018-02-21T10:22:49.178Z,33.10
2018-02-21T10:25:18.245Z,29.00
2018-02-21T10:27:45.884Z,28.50
2018-02-21T10:30:14.737Z,29.47
2018-02-21T10:32:42.390Z,28.37
2018-02-21T10:35:10.061Z,30.63
2018-02-21T10:37:37.723Z,30.83
2018-02-21T10:40:06.148Z,27.60
2018-02-21T10:42:33.821Z,29.00
2018-02-21T10:45:01.466Z,29.23
2018-02-21T10:47:29.139Z,30.33
2018-02-21T10:49:56.774Z,29.40
2018-02-21T10:52:24.415Z,31.73
2018-02-21T10:54:53.047Z,27.30
2018-02-21T10:57:20.734Z,25.67
2018-02-21T10:59:48.399Z,30.67
2018-02-21T11:02:16.076Z,24.87
2018-02-21T11:04:44.495Z,28.73
2018-02-21T11:07:12.348Z,28.23
2018-02-21T11:09:40.044Z,27.57
2018-02-21T11:12:07.696Z,25.97
2018-02-21T11:14:35.378Z,25.70
2018-02-21T11:17:03.034Z,30.13
2018-02-21T11:19:30.815Z,25.87
2018-02-21T11:21:58.480Z,26.07
2018-02-21T11:24:26.198Z,27.50
2018-02-21T11:26:53.866Z,27.47
2018-02-21T11:29:21.510Z,23.43
2018-02-21T11:31:49.165Z,25.83
2018-02-21T11:34:17.586Z,22.43
2018-02-21T11:36:45.259Z,23.20
2018-02-21T11:39:12.936Z,23.57
2018-02-21T11:41:40.612Z,23.50
2018-02-21T11:44:08.252Z,24.83
2018-02-21T11:46:35.932Z,22.60
2018-02-21T11:49:03.581Z,25.43
2018-02-21T11:51:31.208Z,24.60
2018-02-21T11:53:58.864Z,22.40
2018-02-21T11:56:26.491Z,25.27
2018-02-21T11:58:54.168Z,25.77
2018-02-21T12:01:21.806Z,26.07
2018-02-21T12:03:49.474Z,26.00
2018-02-21T12:06:17.144Z,27.67
2018-02-21T12:08:44.775Z,23.03
2018-02-21T12:11:12.441Z,23.90
2018-02-21T12:13:40.092Z,22.73
2018-02-21T12:16:08.979Z,24.13
2018-02-21T12:18:36.660Z,22.43
2018-02-21T12:21:04.340Z,22.40
2018-02-21T12:23:32.002Z,21.70
2018-02-21T12:25:59.673Z,24.00
2018-02-21T12:28:27.345Z,23.50
2018-02-21T12:30:55.016Z,22.40
2018-02-21T12:33:22.709Z,22.10
2018-02-21T12:35:50.350Z,20.87
2018-02-21T12:38:17.998Z,20.77
2018-02-21T12:40:51.286Z,19.60
2018-02-21T12:43:18.960Z,18.97
2018-02-21T12:45:46.614Z,20.73
2018-02-21T12:48:14.309Z,19.33
2018-02-21T12:50:41.948Z,22.07
2018-02-21T12:53:10.403Z,19.60
2018-02-21T12:55:38.064Z,21.23
2018-02-21T12:58:10.081Z,19.33
2018-02-21T13:00:38.003Z,19.93
2018-02-21T13:03:05.656Z,19.40
2018-02-21T13:05:33.518Z,20.30
2018-02-21T13:08:01.158Z,19.73
2018-02-21T13:10:28.823Z,20.30
2018-02-21T13:12:56.486Z,20.30
2018-02-21T13:15:24.125Z,20.40
2018-02-21T13:17:51.796Z,21.23
2018-02-21T13:20:19.455Z,19.13
2018-02-21T13:22:47.883Z,20.00
2018-02-21T13:25:15.516Z,20.27
2018-02-21T13:27:43.143Z,20.93
2018-02-21T13:30:10.794Z,19.73
2018-02-21T13:32:38.494Z,19.87
2018-02-21T13:35:08.533Z,20.87
2018-02-21T13:37:36.190Z,20.50
2018-02-21T13:40:03.863Z,20.53
2018-02-21T13:42:31.651Z,22.03
2018-02-21T13:44:59.228Z,20.10
2018-02-21T13:47:26.864Z,19.30
2018-02-21T13:49:54.532Z,19.77
2018-02-21T13:52:22.185Z,19.53
2018-02-21T13:54:49.852Z,21.07
2018-02-21T13:57:17.499Z,20.70
2018-02-21T13:59:45.150Z,19.33
2018-02-21T14:02:12.800Z,19.90
2018-02-21T14:04:42.646Z,19.77
2018-02-21T14:07:10.335Z,20.33
2018-02-21T14:09:38.014Z,20.90
2018-02-21T14:12:05.713Z,20.17
2018-02-21T14:14:33.370Z,19.30
2018-02-21T14:17:01.826Z,19.63
2018-02-21T14:19:29.467Z,19.97
2018-02-21T14:21:57.162Z,19.97
2018-02-21T14:24:24.796Z,19.17
2018-02-21T14:26:52.458Z,23.37
2018-02-21T14:29:20.120Z,20.63
2018-02-21T14:31:47.795Z,19.90
2018-02-21T14:34:15.503Z,20.37
2018-02-21T14:36:43.152Z,18.70
2018-02-21T14:39:10.820Z,27.07
2018-02-21T14:41:38.471Z,20.83
2018-02-21T14:44:06.916Z,19.07
2018-02-21T14:46:34.609Z,19.40
2018-02-21T14:49:02.267Z,20.57
2018-02-21T14:51:29.946Z,18.53
2018-02-21T14:53:57.535Z,18.53
2018-02-21T14:56:25.426Z,19.13
2018-02-21T14:58:53.068Z,18.37
2018-02-21T15:01:20.745Z,20.80
2018-02-21T15:03:48.422Z,20.83
2018-02-21T15:06:16.101Z,20.37
2018-02-21T15:08:43.780Z,20.00
2018-02-21T15:11:11.424Z,22.67
2018-02-21T15:13:39.094Z,21.50
2018-02-21T15:16:06.764Z,19.63
2018-02-21T15:18:34.404Z,19.03
2018-02-21T15:21:02.065Z,19.30
2018-02-21T15:23:29.740Z,20.20
2018-02-21T15:25:57.373Z,19.93
2018-02-21T15:28:25.040Z,20.10
2018-02-21T15:30:52.710Z,19.17
2018-02-21T15:33:20.384Z,20.73
2018-02-21T15:35:48.055Z,20.07
2018-02-21T15:38:15.721Z,20.03
2018-02-21T15:40:43.383Z,18.97
2018-02-21T15:43:11.066Z,19.00
2018-02-21T15:45:40.749Z,18.60
2018-02-21T15:48:08.447Z,18.23
2018-02-21T15:50:36.884Z,20.10
2018-02-21T15:53:04.559Z,18.80
2018-02-21T15:55:32.232Z,19.60
2018-02-21T15:57:59.888Z,18.83
2018-02-21T16:00:27.563Z,20.13
2018-02-21T16:02:55.229Z,18.50
2018-02-21T16:05:22.871Z,18.87
2018-02-21T16:07:50.533Z,18.87
2018-02-21T16:10:18.223Z,17.63
2018-02-21T16:12:45.813Z,18.77
2018-02-21T16:15:13.613Z,18.10
2018-02-21T16:17:41.248Z,17.37
2018-02-21T16:20:08.966Z,18.43
2018-02-21T16:22:36.613Z,17.23
2018-02-21T16:25:04.277Z,18.73
2018-02-21T16:27:31.937Z,18.77
2018-02-21T16:29:59.611Z,19.07
2018-02-21T16:32:27.289Z,18.33
2018-02-21T16:34:54.957Z,18.37
2018-02-21T16:37:22.618Z,18.03
2018-02-21T16:39:50.310Z,16.67
2018-02-21T16:42:17.950Z,18.37
2018-02-21T16:44:46.460Z,18.33
2018-02-21T16:47:14.105Z,19.73
2018-02-21T16:49:42.522Z,19.80
2018-02-21T16:52:10.222Z,18.47
2018-02-21T16:54:37.881Z,18.40
2018-02-21T16:57:05.572Z,18.50
2018-02-21T16:59:34.002Z,18.70
2018-02-21T17:02:01.715Z,19.27
2018-02-21T17:04:30.131Z,18.20
2018-02-21T17:06:57.785Z,20.30
2018-02-21T17:09:25.438Z,18.40
2018-02-21T17:11:53.098Z,18.37
2018-02-21T17:14:22.734Z,19.23
2018-02-21T17:16:50.404Z,18.43
2018-02-21T17:19:18.087Z,19.60
2018-02-21T17:21:45.741Z,18.17
2018-02-21T17:24:13.409Z,18.87
2018-02-21T17:26:41.085Z,19.53
2018-02-21T17:29:08.763Z,18.13
2018-02-21T17:31:36.416Z,17.97
2018-02-21T17:34:04.103Z,16.93
2018-02-21T17:36:32.547Z,17.90
2018-02-21T17:39:00.205Z,16.30
2018-02-21T17:41:32.650Z,17.97
2018-02-21T17:44:00.338Z,18.97
2018-02-21T17:46:27.979Z,16.27
2018-02-21T17:48:55.636Z,17.93
2018-02-21T17:51:23.233Z,18.60
2018-02-21T17:53:50.836Z,18.07
2018-02-21T17:56:19.619Z,16.70
2018-02-21T17:58:47.278Z,17.03
2018-02-21T18:01:14.951Z,16.80
2018-02-21T18:03:42.609Z,18.27
2018-02-21T18:06:11.044Z,18.50
2018-02-21T18:08:38.673Z,16.80
2018-02-21T18:11:06.320Z,17.40
2018-02-21T18:13:33.987Z,18.67
2018-02-21T18:16:02.410Z,17.50
2018-02-21T18:18:30.081Z,18.20
2018-02-21T18:20:57.746Z,16.63
2018-02-21T18:23:25.426Z,18.80
2018-02-21T18:25:53.158Z,18.63
2018-02-21T18:28:20.821Z,17.03
2018-02-21T18:30:48.496Z,18.23
2018-02-21T18:33:16.173Z,19.03
2018-02-21T18:35:43.824Z,18.37
2018-02-21T18:38:11.491Z,17.67
2018-02-21T18:40:39.161Z,17.70
2018-02-21T18:43:06.813Z,17.60
2018-02-21T18:45:34.488Z,18.33
2018-02-21T18:48:02.581Z,17.57
2018-02-21T18:50:30.261Z,18.60
2018-02-21T18:52:58.955Z,18.37
2018-02-21T18:55:27.248Z,17.87
2018-02-21T18:57:55.267Z,17.73
2018-02-21T19:00:23.299Z,17.87
2018-02-21T19:02:50.907Z,19.27
2018-02-21T19:05:18.562Z,17.63
2018-02-21T19:07:46.937Z,17.93
2018-02-21T19:10:15.166Z,18.23
2018-02-21T19:12:42.966Z,17.63
2018-02-21T19:15:10.617Z,17.67
2018-02-21T19:17:38.287Z,19.00
2018-02-21T19:20:06.080Z,17.80
2018-02-21T19:22:34.395Z,18.60
2018-02-21T19:25:03.240Z,20.80
2018-02-21T19:27:30.973Z,18.77
2018-02-21T19:29:58.952Z,18.17
2018-02-21T19:32:27.283Z,19.03
2018-02-21T19:34:55.281Z,16.33
2018-02-21T19:37:24.309Z,17.23
2018-02-21T19:39:51.947Z,17.53
2018-02-21T19:42:20.141Z,17.77
2018-02-21T19:44:47.804Z,17.83
2018-02-21T19:47:16.099Z,17.33
2018-02-21T19:49:44.140Z,16.87
2018-02-21T19:52:12.668Z,17.63
2018-02-21T19:54:41.717Z,16.20
2018-02-21T19:57:10.251Z,17.37
2018-02-21T19:59:37.916Z,16.43
2018-02-21T20:02:06.591Z,17.67
2018-02-21T20:04:35.373Z,17.23
2018-02-21T20:07:03.027Z,17.90
2018-02-21T20:09:30.745Z,17.10
2018-02-21T20:11:59.206Z,15.67
2018-02-21T20:14:26.870Z,17.43
2018-02-21T20:16:55.115Z,18.07
2018-02-21T20:19:22.826Z,18.17
2018-02-21T20:21:51.247Z,17.50
2018-02-21T20:24:22.276Z,18.07
2018-02-21T20:26:51.016Z,18.17
2018-02-21T20:29:19.945Z,16.50
2018-02-21T20:31:48.739Z,16.50
2018-02-21T20:34:17.259Z,16.80
2018-02-21T20:36:46.540Z,18.13
2018-02-21T20:39:14.286Z,17.23
2018-02-21T20:41:42.975Z,17.93
2018-02-21T20:44:12.167Z,17.20
2018-02-21T20:46:42.031Z,17.27
2018-02-21T20:49:09.962Z,17.27
2018-02-21T20:51:38.159Z,18.40
2018-02-21T20:54:06.423Z,16.77
2018-02-21T20:56:35.339Z,18.37
2018-02-21T20:59:04.042Z,17.03
2018-02-21T21:01:31.916Z,16.27
2018-02-21T21:04:00.763Z,16.37
2018-02-21T21:06:29.249Z,17.10
2018-02-21T21:08:58.209Z,16.93
2018-02-21T21:11:26.862Z,17.67
2018-02-21T21:13:54.582Z,16.90
2018-02-21T21:16:23.108Z,16.20
2018-02-21T21:18:50.683Z,16.83
2018-02-21T21:21:19.420Z,16.37
2018-02-21T21:23:48.110Z,17.77
2018-02-21T21:26:16.870Z,16.93
2018-02-21T21:28:46.211Z,15.83
2018-02-21T21:31:14.407Z,16.00
2018-02-21T21:33:42.302Z,16.10
2018-02-21T21:36:11.081Z,15.70
2018-02-21T21:38:39.621Z,17.10
2018-02-21T21:41:08.198Z,16.97
2018-02-21T21:43:36.874Z,15.57
2018-02-21T21:46:05.503Z,16.07
2018-02-21T21:48:33.173Z,15.63
2018-02-21T21:51:01.695Z,15.70
2018-02-21T21:53:29.392Z,15.57
2018-02-21T21:55:58.360Z,15.13
2018-02-21T21:58:26.880Z,14.37
2018-02-21T22:00:56.457Z,15.40
2018-02-21T22:03:25.606Z,14.73
2018-02-21T22:05:55.931Z,14.33
2018-02-21T22:08:23.872Z,14.23
2018-02-21T22:10:52.936Z,14.47
2018-02-21T22:13:21.747Z,14.37
2018-02-21T22:15:49.744Z,14.53
2018-02-21T22:18:18.407Z,14.83
2018-02-21T22:20:47.991Z,16.30
2018-02-21T22:23:16.649Z,14.73
2018-02-21T22:25:45.217Z,15.60
2018-02-21T22:28:12.901Z,15.70
2018-02-21T22:30:40.538Z,15.60
2018-02-21T22:33:08.199Z,15.40
2018-02-21T22:35:36.458Z,15.13
2018-02-21T22:38:05.718Z,15.70
2018-02-21T22:40:33.955Z,15.93
2018-02-21T22:43:01.587Z,14.73
2018-02-21T22:45:29.795Z,16.93
2018-02-21T22:47:57.722Z,16.30
2018-02-21T22:50:25.628Z,15.13
2018-02-21T22:52:54.127Z,16.47
2018-02-21T22:55:21.995Z,16.20
2018-02-21T22:57:50.121Z,16.00
2018-02-21T23:00:18.404Z,16.60
2018-02-21T23:02:46.744Z,15.67
2018-02-21T23:05:15.159Z,16.27
2018-02-21T23:07:43.626Z,15.33
2018-02-21T23:10:11.275Z,16.63
2018-02-21T23:12:38.956Z,15.87
2018-02-21T23:15:07.988Z,17.00
2018-02-21T23:17:37.337Z,15.77
2018-02-21T23:20:05.917Z,16.23
2018-02-21T23:22:35.055Z,16.47
2018-02-21T23:25:03.944Z,15.73
2018-02-21T23:27:31.843Z,16.57
2018-02-21T23:29:59.476Z,17.50
2018-02-21T23:32:27.852Z,17.13
2018-02-21T23:34:56.542Z,17.37
2018-02-21T23:37:25.939Z,16.20
2018-02-21T23:39:54.400Z,16.83
2018-02-21T23:42:22.979Z,16.77
2018-02-21T23:44:50.742Z,17.83
2018-02-21T23:47:19.090Z,17.03
2018-02-21T23:49:48.434Z,17.30
2018-02-21T23:52:17.082Z,17.03
2018-02-21T23:54:46.250Z,17.37
2018-02-21T23:57:14.645Z,16.20
2018-02-21T23:59:44.124Z,16.20
